Time;durP1;ratioP1;P1;durP2;ratioP2;P2;SDS_P1;SDS_P2;PMS_P1;PMS_P2;Temp;Humidity;BMP_temperature;BMP_pressure;BME280_temperature;BME280_humidity;BME280_pressure;Samples;Min_cycle;Max_cycle;Signal;HPM_P1;HPM_P2
2022/07/09 00:01:02;;;;;;;0.40;0.40;;;;;;;23.69;55.69;94998.31;5050292;28;20633;-72
2022/07/09 00:03:29;;;;;;;0.53;0.33;;;;;;;23.42;56.41;94993.63;5031816;28;20193;-72
2022/07/09 00:05:57;;;;;;;0.80;0.50;;;;;;;23.02;57.83;95002.22;5031977;28;20593;-71
2022/07/09 00:08:23;;;;;;;0.87;0.77;;;;;;;23.38;56.44;94990.81;5021279;28;20202;-73
2022/07/09 00:10:50;;;;;;;0.27;0.27;;;;;;;23.43;56.70;94984.50;5041752;28;20200;-72
2022/07/09 00:13:17;;;;;;;1.60;0.83;;;;;;;23.61;56.50;95001.88;5038747;28;20190;-71
2022/07/09 00:15:44;;;;;;;0.80;0.80;;;;;;;23.38;56.63;95000.75;5038362;28;20685;-73
2022/07/09 00:18:11;;;;;;;0.20;0.20;;;;;;;23.33;56.98;94979.56;5052021;28;20207;-73
2022/07/09 00:20:38;;;;;;;0.40;0.40;;;;;;;23.47;57.05;94996.06;5029685;28;20186;-74
2022/07/09 00:23:05;;;;;;;0.40;0.40;;;;;;;23.49;56.41;94983.13;5029690;28;20201;-71
2022/07/09 00:25:32;;;;;;;0.83;0.60;;;;;;;23.27;56.75;94980.84;5031525;28;20249;-71
2022/07/09 00:27:59;;;;;;;0.50;0.50;;;;;;;22.87;57.71;94978.78;5039468;28;20209;-71
2022/07/09 00:30:27;;;;;;;0.30;0.30;;;;;;;22.38;59.84;94971.69;5031846;28;20584;-71
2022/07/09 00:32:53;;;;;;;0.87;0.87;;;;;;;22.51;59.31;94975.97;5011746;28;20440;-71
2022/07/09 00:35:20;;;;;;;0.97;0.77;;;;;;;22.41;59.17;94973.69;5024758;28;20247;-72
2022/07/09 00:37:47;;;;;;;1.63;0.53;;;;;;;22.31;59.97;94971.44;5030705;28;20282;-70
2022/07/09 00:40:14;;;;;;;0.20;0.20;;;;;;;22.15;60.35;94962.47;5048400;28;20238;-72
2022/07/09 00:42:41;;;;;;;0.37;0.37;;;;;;;22.02;60.88;94974.19;5019513;28;20574;-72
2022/07/09 00:45:08;;;;;;;0.43;0.43;;;;;;;21.88;61.29;94973.63;5045162;28;20281;-71
2022/07/09 00:47:34;;;;;;;0.10;0.10;;;;;;;21.85;61.39;94974.28;5037543;28;20443;-71
2022/07/09 00:50:01;;;;;;;0.73;0.73;;;;;;;21.78;61.64;94965.97;5027565;28;20664;-72
2022/07/09 00:52:30;;;;;;;0.30;0.30;;;;;;;21.58;62.19;94974.72;5012082;28;20198;-73
2022/07/09 00:55:01;;;;;;;0.20;0.20;;;;;;;22.02;61.74;94968.84;5027045;28;20198;-71
2022/07/09 00:57:29;;;;;;;1.10;0.77;;;;;;;22.79;58.81;94950.25;5031150;28;20438;-72
2022/07/09 00:59:57;;;;;;;0.10;0.10;;;;;;;21.64;61.78;94962.78;5047615;28;20451;-72
2022/07/09 01:02:24;;;;;;;1.50;0.70;;;;;;;21.55;62.54;94960.13;5011620;28;20445;-71
2022/07/09 01:04:51;;;;;;;0.40;0.40;;;;;;;21.54;62.09;94957.81;5012194;28;20441;-70
2022/07/09 01:07:18;;;;;;;0.73;0.73;;;;;;;21.67;62.07;94952.25;5038638;28;20443;-71
2022/07/09 01:09:45;;;;;;;0.73;0.73;;;;;;;21.70;61.99;94946.25;5011428;28;20959;-72
2022/07/09 01:12:12;;;;;;;0.57;0.57;;;;;;;21.68;62.28;94948.47;5034682;28;20447;-70
2022/07/09 01:14:38;;;;;;;0.50;0.50;;;;;;;21.87;61.41;94953.41;5051079;28;20820;-71
2022/07/09 01:17:06;;;;;;;0.43;0.43;;;;;;;21.50;62.42;94943.53;5040716;28;20444;-71
2022/07/09 01:19:34;;;;;;;1.27;1.00;;;;;;;21.39;63.02;94950.34;5019192;28;20445;-71
2022/07/09 01:22:01;;;;;;;0.30;0.30;;;;;;;21.07;64.22;94952.53;5050906;28;21007;-73
2022/07/09 01:24:33;;;;;;;0.60;0.60;;;;;;;21.24;63.50;94948.25;5021555;28;20483;-71
2022/07/09 01:27:00;;;;;;;0.83;0.83;;;;;;;20.57;64.99;94946.22;5038558;28;20490;-72
2022/07/09 01:29:27;;;;;;;0.20;0.20;;;;;;;20.90;64.31;94944.56;5023228;28;20879;-71
2022/07/09 01:31:54;;;;;;;0.30;0.30;;;;;;;21.17;63.44;94938.06;5017277;28;20535;-71
2022/07/09 01:34:21;;;;;;;0.40;0.40;;;;;;;21.21;63.21;94943.53;5030974;28;20789;-68
2022/07/09 01:36:49;;;;;;;0.37;0.37;;;;;;;20.86;63.93;94943.63;5019844;28;21003;-71
2022/07/09 01:39:15;;;;;;;0.30;0.30;;;;;;;20.96;63.58;94951.31;5050226;28;20479;-72
2022/07/09 01:41:42;;;;;;;0.30;0.30;;;;;;;20.76;64.49;94944.00;5033777;28;20857;-71
2022/07/09 01:44:09;;;;;;;0.30;0.30;;;;;;;20.68;64.20;94931.47;5038626;28;20439;-72
2022/07/09 01:46:36;;;;;;;0.30;0.30;;;;;;;21.45;62.52;94935.75;5034918;28;21009;-70
2022/07/09 01:49:04;;;;;;;0.10;0.10;;;;;;;21.23;62.65;94936.78;5037748;28;20534;-72
2022/07/09 01:51:34;;;;;;;0.20;0.20;;;;;;;20.98;63.27;94940.31;5023685;28;20499;-71
2022/07/09 01:54:02;;;;;;;0.23;0.23;;;;;;;21.76;61.06;94930.84;5023666;28;20435;-74
2022/07/09 01:56:29;;;;;;;0.37;0.37;;;;;;;20.60;63.69;94934.94;5022847;28;20468;-77
2022/07/09 01:58:55;;;;;;;0.17;0.17;;;;;;;20.69;64.08;94938.34;5035240;28;20861;-72
2022/07/09 02:01:22;;;;;;;0.23;0.23;;;;;;;20.96;63.56;94940.66;5038120;28;20989;-73
2022/07/09 02:03:49;;;;;;;0.77;0.53;;;;;;;20.81;63.94;94919.06;5022600;28;20505;-72
2022/07/09 02:06:16;;;;;;;1.60;0.97;;;;;;;21.15;63.15;94946.38;5050233;28;20861;-73
2022/07/09 02:08:44;;;;;;;0.10;0.10;;;;;;;21.33;62.05;94951.66;5012669;28;21145;-71
2022/07/09 02:11:12;;;;;;;0.53;0.30;;;;;;;21.32;62.21;94948.19;5045039;28;21046;-72
2022/07/09 02:13:39;;;;;;;0.10;0.10;;;;;;;21.33;62.64;94948.97;5040417;28;20510;-72
2022/07/09 02:16:06;;;;;;;0.47;0.47;;;;;;;21.15;62.92;94951.72;5041753;28;20443;-74
2022/07/09 02:18:33;;;;;;;0.93;0.90;;;;;;;20.95;63.44;94952.38;5026466;28;20443;-74
2022/07/09 02:21:00;;;;;;;0.10;0.10;;;;;;;21.46;61.51;94945.31;5049604;28;20872;-73
2022/07/09 02:23:27;;;;;;;0.03;0.03;;;;;;;21.41;61.95;94948.16;5042789;28;21021;-72
2022/07/09 02:25:54;;;;;;;11.63;1.30;;;;;;;21.33;62.32;94946.31;5041787;28;20944;-76
2022/07/09 02:28:21;;;;;;;0.70;0.57;;;;;;;21.52;61.48;94955.47;5030643;28;20456;-72
2022/07/09 02:30:47;;;;;;;0.20;0.20;;;;;;;21.49;60.97;94950.00;5040734;28;20447;-73
2022/07/09 02:33:14;;;;;;;0.10;0.10;;;;;;;21.66;61.10;94960.56;5021926;28;20826;-72
2022/07/09 02:35:42;;;;;;;0.77;0.50;;;;;;;22.00;60.01;94960.38;5049738;28;20512;-72
2022/07/09 02:38:09;;;;;;;0.50;0.50;;;;;;;21.81;60.37;94963.47;5035662;28;20825;-71
2022/07/09 02:40:37;;;;;;;0.13;0.13;;;;;;;21.50;60.63;94962.22;5034479;28;20462;-74
2022/07/09 02:43:04;;;;;;;0.57;0.57;;;;;;;21.53;60.94;94956.25;5024058;28;20875;-71
2022/07/09 02:45:30;;;;;;;0.73;0.73;;;;;;;21.52;60.63;94954.69;5037897;28;20202;-73
2022/07/09 02:47:57;;;;;;;0.70;0.70;;;;;;;21.59;60.29;94961.06;5034585;28;20853;-72
2022/07/09 02:50:24;;;;;;;0.27;0.27;;;;;;;22.09;59.08;94947.75;5017280;28;20432;-72
2022/07/09 02:52:51;;;;;;;0.10;0.10;;;;;;;22.24;57.94;94955.16;5018970;28;20459;-74
2022/07/09 02:55:18;;;;;;;0.10;0.10;;;;;;;21.72;59.92;94969.94;5020259;28;20485;-73
2022/07/09 02:57:45;;;;;;;0.83;0.53;;;;;;;21.89;59.57;94975.19;5033743;28;20446;-73
2022/07/09 03:00:12;;;;;;;0.47;0.47;;;;;;;21.86;59.61;94968.63;5035367;28;20501;-72
2022/07/09 03:02:38;;;;;;;0.30;0.30;;;;;;;21.21;60.78;94960.31;5029113;28;20457;-73
2022/07/09 03:05:06;;;;;;;0.20;0.20;;;;;;;21.50;60.53;94972.88;5027814;28;20436;-75
2022/07/09 03:07:32;;;;;;;0.27;0.27;;;;;;;21.51;60.24;94974.44;5038808;28;20487;-71
2022/07/09 03:09:59;;;;;;;0.10;0.10;;;;;;;21.25;61.00;94973.78;5025253;28;20578;-72
2022/07/09 03:12:26;;;;;;;0.27;0.27;;;;;;;21.34;60.57;94977.19;5022040;28;20440;-73
2022/07/09 03:14:53;;;;;;;0.13;0.13;;;;;;;21.62;60.03;94975.66;5021168;28;20492;-74
2022/07/09 03:17:20;;;;;;;0.17;0.17;;;;;;;21.10;61.47;94965.22;5036667;28;20971;-73
2022/07/09 03:19:47;;;;;;;0.10;0.10;;;;;;;21.19;60.99;94978.50;5038659;28;20487;-69
2022/07/09 03:22:14;;;;;;;0.07;0.07;;;;;;;21.42;60.75;94971.06;5030297;28;20977;-67
2022/07/09 03:24:41;;;;;;;0.27;0.27;;;;;;;21.25;60.59;94971.13;5021264;28;20448;-67
2022/07/09 03:27:07;;;;;;;4.97;4.53;;;;;;;21.70;59.89;94972.13;5049001;28;21005;-67
2022/07/09 03:29:34;;;;;;;0.50;0.50;;;;;;;21.90;58.84;94966.09;5020832;28;20530;-73
2022/07/09 03:32:01;;;;;;;0.30;0.30;;;;;;;21.76;58.99;94974.31;5049226;28;20446;-70
2022/07/09 03:34:28;;;;;;;0.20;0.20;;;;;;;21.85;59.11;94974.28;5048818;28;20481;-69
2022/07/09 03:36:55;;;;;;;0.60;0.60;;;;;;;21.87;58.99;94977.41;5018700;28;20439;-70
2022/07/09 03:39:22;;;;;;;0.73;0.53;;;;;;;21.72;59.17;94965.38;5021429;28;20507;-71
2022/07/09 03:41:48;;;;;;;0.37;0.37;;;;;;;21.85;59.10;94966.28;5041290;28;20828;-72
2022/07/09 03:44:15;;;;;;;0.33;0.27;;;;;;;21.58;59.87;94966.72;5032748;28;20454;-72
2022/07/09 03:46:42;;;;;;;0.33;0.33;;;;;;;22.05;58.56;94973.50;5050899;28;20482;-73
2022/07/09 03:49:10;;;;;;;0.20;0.20;;;;;;;21.95;59.16;94973.91;5041124;28;20954;-71
2022/07/09 03:51:37;;;;;;;0.10;0.10;;;;;;;21.40;61.08;94967.91;5037569;28;20936;-73
2022/07/09 03:54:22;;;;;;;0.10;0.10;;;;;;;21.86;59.81;94975.84;5031162;28;20533;-73
2022/07/09 03:56:49;;;;;;;0.10;0.10;;;;;;;22.48;58.12;94979.28;5020586;28;20443;-73
2022/07/09 03:59:17;;;;;;;1.90;1.43;;;;;;;21.96;59.13;94972.78;5022553;28;20479;-73
2022/07/09 04:01:44;;;;;;;0.30;0.30;;;;;;;21.65;60.16;94981.13;5046078;28;20537;-73
2022/07/09 04:04:11;;;;;;;0.20;0.20;;;;;;;21.99;59.14;94978.25;5043466;28;20961;-71
2022/07/09 04:06:38;;;;;;;1.30;0.97;;;;;;;21.81;59.15;94976.81;5047695;28;20933;-71
2022/07/09 04:09:05;;;;;;;0.30;0.30;;;;;;;21.38;60.76;94975.44;5024625;28;20459;-73
2022/07/09 04:11:32;;;;;;;0.20;0.20;;;;;;;21.51;60.07;94969.13;5038962;28;20451;-71
2022/07/09 04:14:00;;;;;;;0.50;0.50;;;;;;;21.65;60.25;94965.13;5052546;28;20447;-73
2022/07/09 04:16:29;;;;;;;0.20;0.20;;;;;;;21.49;61.07;94976.66;5046955;28;20501;-71
2022/07/09 04:18:59;;;;;;;0.27;0.27;;;;;;;21.60;61.04;94977.84;5021466;28;20441;-72
2022/07/09 04:21:26;;;;;;;0.37;0.37;;;;;;;21.80;59.95;94983.25;5012187;28;20503;-71
2022/07/09 04:23:53;;;;;;;0.10;0.10;;;;;;;21.83;59.97;94989.81;5032468;28;20493;-74
2022/07/09 04:26:20;;;;;;;0.43;0.43;;;;;;;22.14;59.09;94992.91;5023364;28;20524;-72
2022/07/09 04:28:47;;;;;;;0.20;0.20;;;;;;;21.92;59.20;94990.56;5051892;28;20447;-73
2022/07/09 04:31:15;;;;;;;0.20;0.20;;;;;;;21.91;59.66;94994.34;5039777;28;20251;-69
2022/07/09 04:33:43;;;;;;;0.40;0.40;;;;;;;21.72;59.87;94991.28;5041054;28;21037;-74
2022/07/09 04:36:10;;;;;;;0.37;0.37;;;;;;;21.81;60.24;94984.03;5033047;28;20435;-72
2022/07/09 04:38:37;;;;;;;0.30;0.30;;;;;;;21.73;60.12;94988.28;5048942;28;20227;-70
2022/07/09 04:41:04;;;;;;;0.53;0.53;;;;;;;21.79;59.96;94986.22;5022829;28;20440;-72
2022/07/09 04:43:31;;;;;;;0.27;0.27;;;;;;;21.89;59.60;94983.22;5042242;28;20254;-70
2022/07/09 04:45:59;;;;;;;0.60;0.60;;;;;;;21.58;61.18;94985.38;5043930;28;20506;-73
2022/07/09 04:48:26;;;;;;;0.40;0.33;;;;;;;21.53;60.83;94988.25;5044268;28;20687;-73
2022/07/09 04:50:53;;;;;;;0.13;0.13;;;;;;;21.36;61.38;94962.44;5039678;28;20835;-73
2022/07/09 04:53:20;;;;;;;0.20;0.20;;;;;;;21.61;61.11;94979.41;5035999;28;21038;-72
2022/07/09 04:55:47;;;;;;;0.57;0.57;;;;;;;21.10;62.34;94983.09;5031776;28;20452;-71
2022/07/09 04:58:14;;;;;;;0.30;0.30;;;;;;;21.62;61.05;94970.31;5029347;28;20819;-72
2022/07/09 05:00:41;;;;;;;0.40;0.40;;;;;;;21.10;62.35;94986.53;5042778;28;20976;-68
2022/07/09 05:03:08;;;;;;;0.73;0.60;;;;;;;21.01;62.81;94983.13;5030910;28;20443;-73
2022/07/09 05:05:38;;;;;;;0.23;0.23;;;;;;;21.44;61.82;94990.19;5025013;28;20444;-71
2022/07/09 05:08:15;;;;;;;0.20;0.20;;;;;;;20.97;62.88;94994.69;5025880;28;20628;-72
2022/07/09 05:10:42;;;;;;;0.10;0.10;;;;;;;21.38;62.02;94986.13;5025275;28;20479;-74
2022/07/09 05:13:09;;;;;;;0.30;0.30;;;;;;;21.39;61.96;94990.34;5039520;28;21245;-71
2022/07/09 05:15:36;;;;;;;0.40;0.40;;;;;;;21.49;61.26;94992.66;5010977;28;20959;-70
2022/07/09 05:18:03;;;;;;;0.30;0.30;;;;;;;21.50;61.55;94999.53;5011371;28;20452;-72
2022/07/09 05:20:30;;;;;;;1.50;1.23;;;;;;;21.26;62.49;95002.78;5031826;28;20443;-72
2022/07/09 05:22:57;;;;;;;0.20;0.20;;;;;;;21.30;62.20;95006.38;5034786;28;20562;-69
2022/07/09 05:25:24;;;;;;;0.40;0.40;;;;;;;21.62;61.66;94997.00;5039670;28;21050;-72
2022/07/09 05:27:50;;;;;;;0.30;0.30;;;;;;;21.82;60.65;95001.63;5050067;28;20552;-70
2022/07/09 05:30:17;;;;;;;0.10;0.10;;;;;;;22.11;59.81;94993.56;5030768;28;20478;-74
2022/07/09 05:32:46;;;;;;;0.40;0.40;;;;;;;22.31;59.21;95003.47;5044347;28;20498;-70
2022/07/09 05:35:13;;;;;;;0.27;0.27;;;;;;;21.94;60.35;95013.16;5031286;28;20825;-71
2022/07/09 05:37:42;;;;;;;0.23;0.23;;;;;;;21.63;61.16;95006.53;5031222;28;20494;-72
2022/07/09 05:40:10;;;;;;;0.50;0.50;;;;;;;21.83;60.47;95006.63;5048737;28;20435;-71
2022/07/09 05:42:38;;;;;;;0.37;0.37;;;;;;;22.15;59.73;95010.50;5030201;28;20970;-73
2022/07/09 05:45:05;;;;;;;8.80;2.30;;;;;;;22.04;60.57;95014.66;5038087;28;21170;-74
2022/07/09 05:47:32;;;;;;;0.33;0.33;;;;;;;22.10;59.11;95013.34;5019970;28;20546;-73
2022/07/09 05:49:59;;;;;;;0.50;0.50;;;;;;;22.05;59.45;95018.88;5044487;28;20454;-72
2022/07/09 05:52:26;;;;;;;0.23;0.23;;;;;;;21.81;59.84;95016.03;5037738;28;20501;-70
2022/07/09 05:54:52;;;;;;;0.10;0.10;;;;;;;22.11;58.88;95022.94;5034908;28;20962;-72
2022/07/09 05:57:19;;;;;;;0.20;0.20;;;;;;;21.33;60.75;95018.28;5018942;28;20792;-71
2022/07/09 05:59:48;;;;;;;0.23;0.23;;;;;;;21.31;61.08;95017.81;5015956;28;20516;-70
2022/07/09 06:02:15;;;;;;;0.83;0.83;;;;;;;21.92;59.50;95022.56;5030832;28;20440;-70
2022/07/09 06:04:41;;;;;;;0.30;0.27;;;;;;;22.01;59.39;95015.28;5017523;28;20448;-73
2022/07/09 06:07:09;;;;;;;0.60;0.60;;;;;;;22.13;59.46;95018.06;5023991;28;20485;-72
2022/07/09 06:09:36;;;;;;;0.30;0.30;;;;;;;21.81;59.57;95022.16;5014647;28;20444;-71
2022/07/09 06:12:04;;;;;;;0.47;0.47;;;;;;;21.63;60.51;95022.53;5041533;28;20478;-70
2022/07/09 06:14:31;;;;;;;0.20;0.20;;;;;;;22.05;59.50;95021.56;5047171;28;20436;-72
2022/07/09 06:17:01;;;;;;;0.20;0.20;;;;;;;22.27;58.75;95015.91;5039300;28;20988;-72
2022/07/09 06:19:27;;;;;;;0.10;0.10;;;;;;;21.73;59.33;95025.63;5048823;28;20501;-70
2022/07/09 06:21:54;;;;;;;0.20;0.20;;;;;;;22.13;58.84;95026.81;5030316;28;20443;-73
2022/07/09 06:24:23;;;;;;;0.93;0.40;;;;;;;22.08;58.59;95020.88;5016556;28;20484;-72
2022/07/09 06:26:50;;;;;;;0.50;0.50;;;;;;;22.46;57.87;95026.91;5016160;28;20484;-70
2022/07/09 06:29:17;;;;;;;0.30;0.30;;;;;;;22.37;58.04;95025.41;5030289;28;20502;-72
2022/07/09 06:31:47;;;;;;;0.30;0.30;;;;;;;22.44;58.63;95034.47;5034615;28;20436;-71
2022/07/09 06:34:14;;;;;;;0.20;0.20;;;;;;;22.46;58.12;95028.81;5049600;28;20434;-70
2022/07/09 06:36:44;;;;;;;0.67;0.40;;;;;;;22.49;57.88;95036.94;5032492;28;20444;-69
2022/07/09 06:42:06;;;;;;;1.13;0.53;;;;;;;22.87;56.42;95032.22;5018961;28;21321;-68
2022/07/09 06:44:35;;;;;;;0.47;0.47;;;;;;;22.83;56.53;95031.31;5023701;28;21011;-67
2022/07/09 06:47:02;;;;;;;0.20;0.20;;;;;;;22.88;56.81;95031.13;5018938;28;20205;-66
2022/07/09 06:49:30;;;;;;;0.30;0.30;;;;;;;22.75;57.12;95029.53;5012927;28;20452;-65
2022/07/09 06:51:57;;;;;;;0.27;0.27;;;;;;;22.81;57.27;95041.56;5017981;28;20455;-66
2022/07/09 06:54:23;;;;;;;0.57;0.57;;;;;;;22.80;57.21;95033.88;5015351;28;20460;-67
2022/07/09 06:56:51;;;;;;;0.13;0.13;;;;;;;22.78;57.47;95031.53;5006794;28;20867;-68
2022/07/09 06:59:18;;;;;;;0.43;0.43;;;;;;;23.00;56.75;95035.72;5015157;28;20471;-66
2022/07/09 07:01:45;;;;;;;0.50;0.50;;;;;;;22.82;57.01;95034.34;5017235;28;21017;-70
2022/07/09 07:04:12;;;;;;;0.40;0.40;;;;;;;23.13;56.34;95035.44;5020906;28;20452;-67
2022/07/09 07:06:43;;;;;;;0.40;0.40;;;;;;;22.59;57.60;95027.78;5012269;28;20445;-64
2022/07/09 07:09:10;;;;;;;0.67;0.67;;;;;;;22.92;56.06;95028.56;5017414;28;20857;-69
2022/07/09 07:11:37;;;;;;;0.87;0.87;;;;;;;22.56;57.29;95031.88;5018276;28;20498;-66
2022/07/09 07:14:04;;;;;;;0.10;0.10;;;;;;;22.60;57.48;95043.47;5013576;28;20256;-67
2022/07/09 07:16:32;;;;;;;0.27;0.27;;;;;;;22.52;57.77;95041.63;5013933;28;20201;-67
2022/07/09 07:18:59;;;;;;;0.50;0.50;;;;;;;22.75;57.18;95040.22;5010011;28;20448;-67
2022/07/09 07:21:25;;;;;;;0.13;0.13;;;;;;;22.63;57.88;95037.47;5013036;28;20198;-68
2022/07/09 07:23:52;;;;;;;0.60;0.60;;;;;;;22.68;57.98;95033.84;5020986;28;20282;-67
2022/07/09 07:26:19;;;;;;;0.30;0.30;;;;;;;22.55;57.94;95041.00;5010794;28;20237;-66
2022/07/09 07:28:46;;;;;;;0.40;0.40;;;;;;;22.28;58.11;95041.47;5013048;28;20224;-70
2022/07/09 07:31:13;;;;;;;0.20;0.20;;;;;;;22.94;57.08;95045.06;5015793;28;20436;-69
2022/07/09 07:33:40;;;;;;;0.40;0.40;;;;;;;22.50;57.79;95038.50;5016057;28;20480;-65
2022/07/09 07:36:07;;;;;;;0.60;0.60;;;;;;;23.12;56.19;95033.06;5010619;28;21029;-65
2022/07/09 07:38:34;;;;;;;4.87;3.87;;;;;;;23.66;55.29;95041.78;5018921;28;20440;-67
2022/07/09 07:41:02;;;;;;;0.80;0.80;;;;;;;23.74;54.36;95027.53;5015268;28;20198;-66
2022/07/09 07:43:29;;;;;;;0.13;0.13;;;;;;;23.46;56.30;95035.44;5010678;28;20215;-66
2022/07/09 07:45:56;;;;;;;8.43;7.30;;;;;;;23.32;56.07;95031.50;5024575;28;20973;-65
2022/07/09 07:48:23;;;;;;;0.70;0.37;;;;;;;23.30;55.43;95033.72;5017393;28;20229;-64
2022/07/09 07:50:49;;;;;;;0.23;0.23;;;;;;;23.56;54.59;95036.84;5015635;28;20703;-71
2022/07/09 07:53:16;;;;;;;0.10;0.10;;;;;;;23.32;55.08;95031.50;5021078;28;20202;-66
2022/07/09 07:55:45;;;;;;;0.30;0.30;;;;;;;23.24;54.96;95040.34;5012949;28;20440;-71
2022/07/09 07:58:12;;;;;;;0.30;0.30;;;;;;;23.52;55.48;95033.31;5018065;28;20680;-66
2022/07/09 08:00:39;;;;;;;0.20;0.20;;;;;;;23.46;55.32;95032.75;5021269;28;20201;-66
2022/07/09 08:03:05;;;;;;;0.20;0.20;;;;;;;23.57;55.09;95035.75;5012545;28;20189;-67
2022/07/09 08:05:32;;;;;;;0.47;0.47;;;;;;;23.84;53.93;95027.06;5012663;28;20205;-69
2022/07/09 08:07:59;;;;;;;0.63;0.63;;;;;;;23.68;53.96;95023.50;5015337;28;20217;-69
2022/07/09 08:10:26;;;;;;;0.10;0.10;;;;;;;24.05;54.34;95022.38;5018079;28;20190;-69
2022/07/09 08:12:59;;;;;;;0.20;0.20;;;;;;;24.15;53.49;95031.88;5010815;28;20198;-69
2022/07/09 08:15:26;;;;;;;0.20;0.20;;;;;;;24.43;53.67;95027.34;5030328;28;20212;-66
2022/07/09 08:17:53;;;;;;;0.40;0.40;;;;;;;24.35;53.90;95025.56;5043976;28;20220;-71
2022/07/09 08:20:20;;;;;;;0.30;0.30;;;;;;;23.87;53.82;95037.09;5014345;28;20196;-70
2022/07/09 08:22:47;;;;;;;0.83;0.83;;;;;;;23.76;54.14;95019.91;5021944;28;20208;-68
2022/07/09 08:25:14;;;;;;;0.30;0.30;;;;;;;23.93;53.00;95004.44;5030945;28;20201;-69
2022/07/09 08:27:42;;;;;;;0.47;0.47;;;;;;;23.98;53.61;95011.44;5022169;28;20295;-70
2022/07/09 08:30:11;;;;;;;0.20;0.20;;;;;;;24.05;53.10;95030.41;5014094;28;20282;-69
2022/07/09 08:32:39;;;;;;;0.40;0.40;;;;;;;24.10;52.69;95030.22;5035424;28;20342;-67
2022/07/09 08:35:07;;;;;;;0.10;0.10;;;;;;;24.16;53.07;95023.50;5025660;28;20224;-70
2022/07/09 08:37:34;;;;;;;0.40;0.40;;;;;;;24.28;52.71;95036.88;5050609;28;20208;-68
2022/07/09 08:40:06;;;;;;;0.40;0.37;;;;;;;24.67;51.53;95035.31;5050666;28;20258;-68
2022/07/09 08:42:33;;;;;;;0.57;0.50;;;;;;;24.21;53.24;95041.22;5025591;28;20590;-69
2022/07/09 08:45:00;;;;;;;0.37;0.37;;;;;;;24.70;51.95;95032.78;5022591;28;20197;-65
2022/07/09 08:47:27;;;;;;;0.67;0.67;;;;;;;25.06;51.43;95040.66;5034240;28;20216;-63
2022/07/09 08:49:58;;;;;;;10.70;2.37;;;;;;;25.21;50.51;95041.03;5040983;28;20231;-65
2022/07/09 08:52:26;;;;;;;0.77;0.70;;;;;;;25.28;49.43;95031.25;5030394;28;20717;-65
2022/07/09 08:54:53;;;;;;;0.43;0.43;;;;;;;24.36;51.77;95035.94;5035060;28;20253;-69
2022/07/09 08:57:24;;;;;;;0.70;0.60;;;;;;;24.90;51.27;95037.16;5018243;28;20200;-64
2022/07/09 08:59:51;;;;;;;0.93;0.67;;;;;;;24.75;50.40;95037.88;5044395;28;20247;-64
2022/07/09 09:02:20;;;;;;;0.30;0.30;;;;;;;24.69;50.91;95041.88;5037130;28;20204;-66
2022/07/09 09:04:48;;;;;;;0.30;0.30;;;;;;;24.98;50.08;95038.88;5037351;28;20291;-65
2022/07/09 09:07:17;;;;;;;1.40;0.93;;;;;;;24.99;50.23;95035.09;5016626;28;20194;-65
2022/07/09 09:09:45;;;;;;;0.63;0.63;;;;;;;25.21;50.10;95036.44;5015655;28;20914;-70
2022/07/09 09:12:12;;;;;;;0.20;0.20;;;;;;;24.80;50.83;95045.66;5042499;28;20200;-69
2022/07/09 09:14:47;;;;;;;0.20;0.20;;;;;;;24.88;50.80;95034.03;5050314;28;20284;-66
2022/07/09 09:17:14;;;;;;;6.70;1.50;;;;;;;25.05;51.29;95033.72;5050385;28;20232;-66
2022/07/09 09:19:41;;;;;;;0.20;0.20;;;;;;;24.32;51.71;95045.00;5020261;28;20205;-70
2022/07/09 09:22:09;;;;;;;0.30;0.30;;;;;;;24.55;51.42;95046.84;5011055;28;20206;-67
2022/07/09 09:24:36;;;;;;;2.90;0.60;;;;;;;25.73;49.18;95036.25;5010101;28;20695;-67
2022/07/09 09:27:05;;;;;;;0.63;0.63;;;;;;;25.73;49.70;95036.25;5030048;28;21150;-69
2022/07/09 09:29:33;;;;;;;0.43;0.43;;;;;;;25.12;52.01;95021.63;5030427;28;20262;-70
2022/07/09 09:32:10;;;;;;;1.13;1.03;;;;;;;25.36;51.35;95035.69;5016880;28;20671;-66
2022/07/09 09:34:49;;;;;;;0.27;0.27;;;;;;;25.30;52.13;95044.31;5012971;28;20201;-67
2022/07/09 09:37:28;;;;;;;0.20;0.20;;;;;;;25.02;50.64;95034.41;5014838;28;20209;-68
2022/07/09 09:39:56;;;;;;;0.20;0.20;;;;;;;24.74;49.76;95038.22;5009979;28;20287;-66
2022/07/09 09:42:27;;;;;;;0.73;0.73;;;;;;;24.96;48.41;95035.00;5030106;28;20190;-66
2022/07/09 09:44:59;;;;;;;0.67;0.67;;;;;;;24.89;50.56;95029.44;5020183;28;20205;-66
2022/07/09 09:47:27;;;;;;;0.67;0.67;;;;;;;24.61;48.88;95034.00;5021068;28;20208;-67
2022/07/09 09:50:00;;;;;;;0.77;0.77;;;;;;;24.61;50.39;95039.34;5018756;28;20205;-66
2022/07/09 09:52:27;;;;;;;0.30;0.30;;;;;;;24.92;48.62;95026.09;5036858;28;20247;-67
2022/07/09 09:54:54;;;;;;;0.47;0.47;;;;;;;24.94;48.34;95032.66;5034369;28;20249;-68
2022/07/09 09:57:24;;;;;;;0.47;0.47;;;;;;;24.96;50.09;95035.78;5026997;28;20301;-66
2022/07/09 09:59:53;;;;;;;0.20;0.20;;;;;;;25.24;48.81;95018.88;5008559;28;20201;-66
2022/07/09 10:02:21;;;;;;;0.30;0.30;;;;;;;24.76;50.16;95030.63;5009620;28;20201;-66
2022/07/09 10:04:47;;;;;;;2.13;0.53;;;;;;;24.24;50.08;95035.97;5017936;28;20235;-66
2022/07/09 10:07:15;;;;;;;1.07;1.00;;;;;;;24.39;49.03;95037.97;5023962;28;20202;-70
2022/07/09 10:09:56;;;;;;;0.30;0.30;;;;;;;24.75;48.58;95040.56;5027211;28;20190;-66
2022/07/09 10:12:35;;;;;;;0.40;0.40;;;;;;;24.88;48.11;95042.09;5024065;28;20209;-66
2022/07/09 10:15:24;;;;;;;0.40;0.40;;;;;;;24.36;49.07;95046.66;5019651;28;20363;-66
2022/07/09 10:17:52;;;;;;;0.10;0.10;;;;;;;24.20;50.97;95043.13;5022437;28;20243;-66
2022/07/09 10:20:36;;;;;;;1.00;0.63;;;;;;;24.64;51.42;95039.44;5024057;28;20208;-66
2022/07/09 10:23:04;;;;;;;0.23;0.23;;;;;;;25.18;48.77;95047.09;5030450;28;20275;-66
2022/07/09 10:25:43;;;;;;;0.37;0.37;;;;;;;25.01;48.70;95038.22;5021709;28;20287;-66
2022/07/09 10:28:17;;;;;;;0.60;0.60;;;;;;;25.18;49.21;95045.19;5025256;28;20722;-66
2022/07/09 10:30:44;;;;;;;1.43;1.07;;;;;;;25.22;49.26;95051.41;5020184;28;20658;-64
2022/07/09 10:33:35;;;;;;;9.73;4.03;;;;;;;25.58;47.55;95039.72;5020719;28;20201;-64
2022/07/09 10:36:15;;;;;;;0.40;0.40;;;;;;;24.99;47.05;95051.19;5017005;28;20200;-65
2022/07/09 10:38:54;;;;;;;0.73;0.73;;;;;;;25.91;46.01;95048.19;5021366;28;20616;-67
2022/07/09 10:41:23;;;;;;;1.17;0.73;;;;;;;25.47;47.08;95039.47;5013480;28;20208;-66
2022/07/09 10:43:51;;;;;;;4.30;2.43;;;;;;;25.51;46.31;95039.53;5016624;28;20224;-67
2022/07/09 10:46:19;;;;;;;1.87;1.67;;;;;;;25.33;46.30;95054.38;5008924;28;20212;-67
2022/07/09 10:48:47;;;;;;;2.03;0.57;;;;;;;25.29;46.71;95048.13;5016615;28;20213;-63
2022/07/09 10:51:18;;;;;;;0.10;0.10;;;;;;;24.86;46.64;95049.69;5022259;28;20304;-67
2022/07/09 10:53:46;;;;;;;0.10;0.10;;;;;;;24.92;47.04;95040.28;5022211;28;20289;-68
2022/07/09 10:56:20;;;;;;;0.40;0.40;;;;;;;25.12;46.60;95051.13;5018303;28;20185;-66
2022/07/09 10:58:47;;;;;;;0.10;0.10;;;;;;;25.15;46.98;95055.78;5019606;28;20247;-68
2022/07/09 11:01:24;;;;;;;0.30;0.30;;;;;;;26.25;45.20;95052.84;5014567;28;20212;-67
2022/07/09 11:03:52;;;;;;;0.10;0.10;;;;;;;25.95;46.77;95054.41;5007012;28;20208;-66
2022/07/09 11:06:19;;;;;;;0.10;0.10;;;;;;;25.26;49.26;95054.97;5014008;28;20208;-69
2022/07/09 11:08:45;;;;;;;0.20;0.20;;;;;;;25.54;48.84;95060.31;5014274;28;20699;-65
2022/07/09 11:11:21;;;;;;;0.10;0.10;;;;;;;25.71;47.91;95059.97;5014480;28;20203;-65
2022/07/09 11:13:56;;;;;;;0.33;0.33;;;;;;;24.93;48.80;95057.91;5018842;28;20255;-65
2022/07/09 11:16:24;;;;;;;0.20;0.20;;;;;;;24.92;49.30;95067.09;5009570;28;20304;-64
2022/07/09 11:18:53;;;;;;;0.30;0.30;;;;;;;24.77;49.75;95058.97;5009713;28;20294;-63
2022/07/09 11:21:24;;;;;;;0.20;0.20;;;;;;;24.15;50.98;95066.66;5010566;28;20193;-65
2022/07/09 11:23:51;;;;;;;0.20;0.20;;;;;;;25.08;49.49;95059.88;5012263;28;20190;-66
2022/07/09 11:26:19;;;;;;;0.13;0.13;;;;;;;24.87;49.54;95058.50;5013403;28;20244;-64
2022/07/09 11:28:47;;;;;;;0.30;0.30;;;;;;;24.09;50.85;95066.91;5008969;28;20626;-65
2022/07/09 11:31:16;;;;;;;0.17;0.17;;;;;;;23.85;51.68;95066.88;5008015;28;20201;-65
2022/07/09 11:36:36;;;;;;;0.70;0.50;;;;;;;24.13;51.18;95056.31;5007392;28;20248;-65
2022/07/09 11:39:03;;;;;;;0.20;0.20;;;;;;;24.07;51.67;95054.97;5015713;28;20201;-64
2022/07/09 11:41:43;;;;;;;0.10;0.10;;;;;;;23.91;50.77;95059.41;5009713;28;20259;-67
2022/07/09 11:44:14;;;;;;;3.33;0.97;;;;;;;23.73;50.91;95055.38;5009415;28;20583;-71